createdAt,value
2019-01-15T00:01:36.535Z,54.24
2019-01-15T00:04:08.144Z,54.43
2019-01-15T00:06:39.222Z,54.51
2019-01-15T00:09:11.037Z,53.75
2019-01-15T00:11:42.912Z,54.21
2019-01-15T00:14:14.489Z,54.21
2019-01-15T00:16:45.878Z,54.22
2019-01-15T00:19:17.143Z,54.19
2019-01-15T00:21:48.800Z,53.91
2019-01-15T00:24:20.965Z,53.68
2019-01-15T00:26:53.437Z,53.94
2019-01-15T00:29:24.593Z,53.32
2019-01-15T00:31:56.042Z,53.60
2019-01-15T00:34:27.474Z,53.60
2019-01-15T00:36:59.035Z,53.78
2019-01-15T00:39:31.083Z,53.75
2019-01-15T00:42:02.372Z,53.77
2019-01-15T00:44:33.778Z,53.53
2019-01-15T00:47:05.137Z,53.69
2019-01-15T00:49:36.436Z,53.83
2019-01-15T00:52:07.828Z,53.52
2019-01-15T00:54:39.911Z,53.26
2019-01-15T00:57:11.404Z,54.12
2019-01-15T00:59:42.660Z,54.05
2019-01-15T01:02:14.197Z,54.50
2019-01-15T01:04:45.447Z,54.16
2019-01-15T01:07:16.866Z,54.16
2019-01-15T01:09:48.390Z,54.17
2019-01-15T01:12:22.279Z,54.01
2019-01-15T01:14:52.562Z,54.21
2019-01-15T01:17:24.041Z,54.41
2019-01-15T01:19:55.480Z,54.41
2019-01-15T01:22:26.829Z,54.77
2019-01-15T01:24:58.233Z,54.77
2019-01-15T01:27:29.525Z,54.62
2019-01-15T01:30:00.878Z,55.09
2019-01-15T01:32:32.097Z,55.09
2019-01-15T01:35:03.559Z,55.48
2019-01-15T01:37:34.908Z,55.48
2019-01-15T01:40:11.321Z,55.41
2019-01-15T01:42:42.682Z,55.41
2019-01-15T01:45:14.678Z,55.09
2019-01-15T01:47:46.057Z,55.09
2019-01-15T01:50:17.716Z,55.16
2019-01-15T01:52:49.582Z,55.16
2019-01-15T01:55:20.831Z,55.28
2019-01-15T01:57:53.442Z,55.13
2019-01-15T02:00:25.103Z,55.40
2019-01-15T02:02:56.254Z,55.32
2019-01-15T02:05:28.050Z,55.69
2019-01-15T02:07:59.667Z,55.76
2019-01-15T02:10:31.453Z,55.76
2019-01-15T02:13:02.574Z,55.49
2019-01-15T02:15:34.159Z,54.96
2019-01-15T02:18:05.489Z,55.15
2019-01-15T02:20:37.434Z,51.56
2019-01-15T02:23:09.140Z,51.56
2019-01-15T02:25:40.816Z,50.51
2019-01-15T02:28:11.704Z,50.24
2019-01-15T02:30:42.953Z,50.24
2019-01-15T02:33:14.202Z,50.75
2019-01-15T02:35:45.639Z,50.75
2019-01-15T02:38:17.443Z,50.12
2019-01-15T02:40:48.800Z,50.12
2019-01-15T02:43:20.143Z,50.34
2019-01-15T02:45:52.037Z,50.40
2019-01-15T02:48:23.770Z,50.40
2019-01-15T02:50:55.176Z,49.63
2019-01-15T02:53:26.750Z,49.63
2019-01-15T02:55:58.477Z,49.75
2019-01-15T02:58:30.675Z,49.75
2019-01-15T03:01:02.002Z,49.43
2019-01-15T03:03:33.442Z,49.51
2019-01-15T03:06:05.526Z,49.53
2019-01-15T03:08:37.035Z,49.53
2019-01-15T03:11:08.781Z,50.09
2019-01-15T03:13:40.372Z,49.62
2019-01-15T03:16:11.793Z,49.19
2019-01-15T03:18:43.470Z,49.19
2019-01-15T03:21:14.866Z,50.10
2019-01-15T03:23:46.166Z,49.51
2019-01-15T03:26:17.963Z,49.80
2019-01-15T03:28:49.700Z,49.80
2019-01-15T03:31:21.013Z,49.88
2019-01-15T03:33:52.505Z,50.00
2019-01-15T03:36:23.794Z,50.22
2019-01-15T03:38:55.079Z,50.22
2019-01-15T03:41:26.199Z,50.14
2019-01-15T03:43:58.054Z,50.14
2019-01-15T03:46:29.648Z,50.42
2019-01-15T03:49:01.054Z,50.28
2019-01-15T03:51:33.476Z,50.53
2019-01-15T03:54:05.242Z,50.53
2019-01-15T03:56:36.954Z,51.21
2019-01-15T03:59:08.309Z,51.21
2019-01-15T04:01:39.711Z,50.21
2019-01-15T04:04:11.139Z,51.19
2019-01-15T04:06:43.175Z,51.66
2019-01-15T04:09:15.856Z,51.01
2019-01-15T04:11:47.137Z,51.01
2019-01-15T04:14:18.506Z,51.11
2019-01-15T04:16:49.802Z,51.11
2019-01-15T04:19:21.031Z,50.76
2019-01-15T04:21:52.377Z,50.60
2019-01-15T04:24:23.583Z,51.17
2019-01-15T04:26:56.263Z,50.82
2019-01-15T04:29:27.822Z,50.94
2019-01-15T04:31:59.215Z,50.94
2019-01-15T04:34:30.616Z,51.50
2019-01-15T04:37:01.958Z,51.37
2019-01-15T04:39:33.982Z,51.19
2019-01-15T04:42:05.675Z,51.19
2019-01-15T04:44:36.802Z,51.81
2019-01-15T04:47:07.948Z,51.81
2019-01-15T04:49:39.433Z,51.91
2019-01-15T04:52:10.945Z,52.17
2019-01-15T04:54:42.481Z,52.17
2019-01-15T04:57:14.136Z,52.80
2019-01-15T04:59:45.831Z,52.33
2019-01-15T05:02:17.221Z,52.50
2019-01-15T05:04:48.725Z,52.73
2019-01-15T05:07:20.276Z,52.30
2019-01-15T05:09:52.034Z,52.30
2019-01-15T05:12:24.184Z,52.47
2019-01-15T05:14:55.771Z,52.47
2019-01-15T05:17:27.314Z,53.36
2019-01-15T05:19:58.788Z,52.60
2019-01-15T05:22:30.158Z,53.88
2019-01-15T05:25:02.212Z,53.91
2019-01-15T05:27:33.494Z,53.38
2019-01-15T05:30:05.586Z,53.36
2019-01-15T05:32:37.513Z,53.37
2019-01-15T05:35:09.445Z,53.37
2019-01-15T05:37:41.119Z,53.25
2019-01-15T05:40:12.918Z,53.31
2019-01-15T05:42:45.083Z,53.20
2019-01-15T05:45:23.526Z,53.20
2019-01-15T05:47:55.624Z,52.78
2019-01-15T05:50:37.609Z,52.77
2019-01-15T05:53:08.943Z,52.77
2019-01-15T05:55:40.582Z,52.26
2019-01-15T05:58:12.255Z,52.22
2019-01-15T06:00:43.633Z,51.76
2019-01-15T06:03:15.483Z,51.76
2019-01-15T06:05:47.321Z,51.43
2019-01-15T06:08:18.782Z,51.90
2019-01-15T06:10:50.458Z,51.56
2019-01-15T06:13:21.935Z,51.97
2019-01-15T06:15:53.533Z,51.78
2019-01-15T06:18:24.990Z,51.78
2019-01-15T06:20:56.697Z,51.19
2019-01-15T06:23:28.274Z,51.19
2019-01-15T06:25:59.463Z,50.50
2019-01-15T06:28:31.252Z,51.70
2019-01-15T06:31:02.562Z,51.51
2019-01-15T06:33:34.330Z,51.51
2019-01-15T06:36:05.681Z,50.98
2019-01-15T06:38:37.181Z,50.98
2019-01-15T06:41:08.812Z,50.99
2019-01-15T06:43:41.836Z,50.39
2019-01-15T06:46:13.396Z,50.70
2019-01-15T06:48:44.949Z,50.95
2019-01-15T06:51:16.623Z,50.60
2019-01-15T06:53:47.931Z,50.71
2019-01-15T06:56:19.291Z,50.71
2019-01-15T06:58:53.713Z,50.10
2019-01-15T07:01:25.817Z,50.10
2019-01-15T07:03:57.554Z,48.75
2019-01-15T07:06:29.206Z,47.06
2019-01-15T07:09:00.810Z,48.12
2019-01-15T07:11:34.026Z,46.82
2019-01-15T07:14:05.946Z,47.38
2019-01-15T07:16:38.559Z,47.43
2019-01-15T07:19:10.004Z,47.04
2019-01-15T07:21:41.257Z,47.04
2019-01-15T07:24:13.417Z,46.97
2019-01-15T07:26:44.720Z,46.60
2019-01-15T07:29:16.119Z,46.60
2019-01-15T07:31:47.664Z,45.33
2019-01-15T07:34:19.532Z,47.47
2019-01-15T07:36:50.741Z,46.49
2019-01-15T07:39:23.216Z,46.49
2019-01-15T07:41:54.886Z,46.81
2019-01-15T07:44:26.261Z,44.77
2019-01-15T07:46:58.101Z,47.41
2019-01-15T07:49:29.623Z,47.41
2019-01-15T07:52:01.037Z,46.07
2019-01-15T07:54:32.516Z,46.07
2019-01-15T07:57:03.892Z,46.22
2019-01-15T07:59:35.544Z,46.90
2019-01-15T08:02:08.225Z,46.90
2019-01-15T08:04:39.905Z,47.63
2019-01-15T08:07:11.338Z,45.99
2019-01-15T08:09:42.897Z,44.63
2019-01-15T08:12:14.704Z,44.63
2019-01-15T08:14:46.224Z,45.67
2019-01-15T08:17:17.651Z,45.11
2019-01-15T08:19:48.752Z,45.11
2019-01-15T08:22:20.778Z,45.22
2019-01-15T08:24:52.536Z,44.26
2019-01-15T08:27:24.392Z,44.28
2019-01-15T08:29:55.599Z,44.28
2019-01-15T08:32:27.995Z,45.34
2019-01-15T08:34:59.336Z,43.84
2019-01-15T08:37:30.956Z,45.25
2019-01-15T08:40:02.441Z,44.73
2019-01-15T08:42:33.770Z,44.95
2019-01-15T08:45:06.225Z,44.95
2019-01-15T08:47:41.092Z,44.74
2019-01-15T08:50:13.018Z,44.34
2019-01-15T08:52:44.841Z,43.14
2019-01-15T08:55:16.203Z,43.25
2019-01-15T08:57:47.937Z,39.56
2019-01-15T09:00:19.534Z,42.30
2019-01-15T09:02:52.038Z,42.30
2019-01-15T09:05:23.659Z,42.55
2019-01-15T09:07:55.797Z,41.42
2019-01-15T09:10:27.245Z,42.59
2019-01-15T09:12:58.578Z,42.50
2019-01-15T09:15:30.538Z,42.50
2019-01-15T09:18:02.420Z,42.16
2019-01-15T09:20:33.932Z,42.76
2019-01-15T09:23:05.573Z,43.63
2019-01-15T09:25:37.977Z,43.63
2019-01-15T09:28:13.076Z,43.85
2019-01-15T09:30:46.696Z,43.85
2019-01-15T09:33:20.313Z,43.36
2019-01-15T09:35:53.537Z,44.24
2019-01-15T09:38:26.025Z,44.24
2019-01-15T09:41:00.091Z,44.64
2019-01-15T09:43:32.560Z,45.57
2019-01-15T09:46:04.291Z,44.05
2019-01-15T09:48:38.045Z,44.05
2019-01-15T09:51:09.807Z,44.08
2019-01-15T09:53:43.219Z,44.08
2019-01-15T09:56:15.171Z,45.13
2019-01-15T09:58:48.123Z,44.89
2019-01-15T10:01:20.497Z,44.91
2019-01-15T10:03:52.388Z,45.46
2019-01-15T10:06:27.216Z,45.99
2019-01-15T10:08:58.867Z,45.99
2019-01-15T10:11:30.616Z,46.87
2019-01-15T10:14:02.457Z,46.63
2019-01-15T10:16:33.930Z,47.15
2019-01-15T10:19:05.587Z,47.15
2019-01-15T10:21:37.210Z,46.72
2019-01-15T10:24:09.157Z,46.72
2019-01-15T10:26:40.606Z,47.21
2019-01-15T10:29:13.139Z,46.70
2019-01-15T10:32:26.857Z,46.70
2019-01-15T10:34:59.584Z,46.81
2019-01-15T10:37:31.191Z,46.81
2019-01-15T10:40:02.768Z,47.46
2019-01-15T10:42:34.533Z,47.75
2019-01-15T10:45:07.006Z,46.51
2019-01-15T10:47:39.357Z,46.51
2019-01-15T10:50:11.358Z,48.42
2019-01-15T10:52:43.197Z,48.42
2019-01-15T10:55:14.816Z,47.97
2019-01-15T10:57:46.402Z,46.00
2019-01-15T11:00:17.977Z,46.00
2019-01-15T11:02:49.411Z,48.18
2019-01-15T11:05:20.771Z,48.00
2019-01-15T11:07:52.338Z,49.05
2019-01-15T11:10:23.847Z,49.05
2019-01-15T11:12:55.184Z,49.30
2019-01-15T11:15:26.897Z,49.62
2019-01-15T11:17:58.960Z,50.06
2019-01-15T11:20:30.838Z,49.88
2019-01-15T11:23:02.301Z,49.88
2019-01-15T11:25:33.849Z,49.29
2019-01-15T11:28:06.957Z,49.29
2019-01-15T11:30:38.667Z,47.75
2019-01-15T11:33:10.532Z,48.49
2019-01-15T11:35:41.913Z,48.51
2019-01-15T11:38:13.551Z,48.51
2019-01-15T11:40:44.775Z,48.77
2019-01-15T11:43:17.857Z,48.33
2019-01-15T11:45:49.240Z,48.75
2019-01-15T11:48:21.611Z,48.42
2019-01-15T11:50:52.795Z,48.77
2019-01-15T11:53:24.268Z,48.77
2019-01-15T11:55:55.472Z,48.92
2019-01-15T11:58:27.039Z,48.96
2019-01-15T12:01:16.246Z,49.45
2019-01-15T12:04:16.253Z,49.66
2019-01-15T12:07:05.617Z,49.78
2019-01-15T12:09:54.890Z,50.26
2019-01-15T12:12:43.656Z,50.42
2019-01-15T12:15:28.010Z,50.42
2019-01-15T12:18:16.952Z,50.28
2019-01-15T12:21:19.134Z,50.74
2019-01-15T12:24:09.450Z,50.68
2019-01-15T12:27:04.561Z,50.81
2019-01-15T12:29:53.576Z,51.32
2019-01-15T12:32:44.589Z,51.62
2019-01-15T12:35:32.156Z,51.32
2019-01-15T12:38:25.586Z,51.72
2019-01-15T12:41:12.536Z,51.72
2019-01-15T12:44:21.624Z,51.98
2019-01-15T12:47:12.420Z,52.00
2019-01-15T12:50:01.699Z,52.22
2019-01-15T12:52:51.680Z,52.22
2019-01-15T12:55:40.841Z,52.51
2019-01-15T12:58:35.847Z,52.51
2019-01-15T13:01:29.311Z,52.61
2019-01-15T13:04:18.264Z,52.70
2019-01-15T13:07:19.853Z,52.86
2019-01-15T13:10:01.620Z,53.22
2019-01-15T13:13:02.043Z,53.22
2019-01-15T13:15:51.681Z,53.59
2019-01-15T13:18:44.717Z,53.87
2019-01-15T13:21:35.265Z,54.33
2019-01-15T13:24:40.822Z,54.42
2019-01-15T13:27:29.977Z,54.11
2019-01-15T13:30:25.956Z,53.87
2019-01-15T13:33:16.603Z,53.93
2019-01-15T13:36:04.958Z,53.99
2019-01-15T13:38:50.635Z,53.99
2019-01-15T13:41:49.663Z,54.14
2019-01-15T13:44:49.242Z,54.17
2019-01-15T13:47:39.739Z,54.24
2019-01-15T13:50:24.495Z,54.09
2019-01-15T13:53:30.351Z,54.09
2019-01-15T13:56:20.860Z,54.35
2019-01-15T13:59:23.092Z,54.35
2019-01-15T14:02:05.408Z,54.46
2019-01-15T14:05:10.643Z,54.83
2019-01-15T14:08:19.817Z,55.62
2019-01-15T14:11:25.319Z,55.62
2019-01-15T14:14:15.946Z,56.05
2019-01-15T14:17:03.160Z,56.05
2019-01-15T14:19:56.738Z,55.97
2019-01-15T14:22:49.891Z,55.90
2019-01-15T14:25:55.267Z,56.33
2019-01-15T14:28:52.086Z,56.33
2019-01-15T14:31:40.736Z,56.90
2019-01-15T14:34:30.220Z,56.90
2019-01-15T14:37:27.870Z,57.33
2019-01-15T14:40:30.775Z,57.33
2019-01-15T14:43:24.455Z,57.12
2019-01-15T14:46:20.604Z,57.12
2019-01-15T14:49:02.391Z,56.90
2019-01-15T14:52:10.801Z,57.29
2019-01-15T14:55:07.585Z,57.29
2019-01-15T14:57:56.685Z,60.39
2019-01-15T15:00:49.936Z,61.73
2019-01-15T15:03:32.786Z,61.66
2019-01-15T15:06:17.300Z,61.66
2019-01-15T15:09:06.580Z,62.59
2019-01-15T15:12:00.658Z,62.64
2019-01-15T15:14:45.141Z,63.43
2019-01-15T15:17:38.274Z,63.67
2019-01-15T15:20:32.112Z,63.70
2019-01-15T15:23:22.448Z,63.87
2019-01-15T15:26:24.204Z,63.69
2019-01-15T15:29:17.477Z,64.08
2019-01-15T15:32:06.024Z,63.73
2019-01-15T15:34:59.097Z,63.73
2019-01-15T15:37:50.184Z,64.17
2019-01-15T15:40:41.258Z,64.47
2019-01-15T15:43:34.743Z,63.93
2019-01-15T15:46:19.572Z,64.56
2019-01-15T15:49:13.199Z,64.30
2019-01-15T15:52:09.519Z,64.73
2019-01-15T15:55:14.868Z,64.73
2019-01-15T15:58:12.172Z,64.90
2019-01-15T16:01:01.025Z,64.89
2019-01-15T16:03:44.709Z,64.89
2019-01-15T16:06:49.379Z,65.67
2019-01-15T16:09:41.363Z,66.00
2019-01-15T16:12:31.886Z,66.00
2019-01-15T16:15:26.456Z,66.20
2019-01-15T16:18:15.748Z,66.65
2019-01-15T16:21:14.651Z,66.80
2019-01-15T16:24:19.714Z,67.01
2019-01-15T16:27:19.581Z,67.20
2019-01-15T16:30:11.707Z,67.26
2019-01-15T16:33:05.289Z,67.26
2019-01-15T16:36:07.475Z,67.38
2019-01-15T16:39:01.012Z,67.42
2019-01-15T16:41:51.809Z,67.48
2019-01-15T16:45:00.432Z,67.52
2019-01-15T16:47:57.680Z,67.52
2019-01-15T16:50:53.696Z,67.82
2019-01-15T16:53:41.251Z,68.26
2019-01-15T16:56:30.396Z,68.24
2019-01-15T16:59:20.839Z,68.38
2019-01-15T17:02:09.764Z,67.99
2019-01-15T17:05:15.605Z,67.72
2019-01-15T17:08:04.747Z,67.77
2019-01-15T17:10:55.284Z,68.12
2019-01-15T17:13:52.348Z,68.97
2019-01-15T17:16:51.957Z,68.97
2019-01-15T17:19:52.567Z,68.57
2019-01-15T17:22:42.994Z,69.14
2019-01-15T17:25:34.596Z,68.89
2019-01-15T17:28:23.765Z,69.45
2019-01-15T17:31:09.499Z,69.40
2019-01-15T17:33:58.810Z,69.46
2019-01-15T17:36:54.510Z,69.60
2019-01-15T17:39:43.691Z,69.60
2019-01-15T17:42:33.061Z,69.59
2019-01-15T17:45:32.877Z,69.59
2019-01-15T17:48:23.369Z,70.48
2019-01-15T17:51:26.185Z,70.12
2019-01-15T17:54:20.143Z,69.86
2019-01-15T17:57:26.702Z,69.67
2019-01-15T18:00:15.351Z,70.10
2019-01-15T18:03:06.612Z,69.29
2019-01-15T18:06:00.994Z,69.81
2019-01-15T18:08:53.596Z,70.15
2019-01-15T18:11:52.899Z,69.90
2019-01-15T18:14:52.738Z,69.90
2019-01-15T18:17:40.678Z,71.01
2019-01-15T18:20:41.087Z,71.01
2019-01-15T18:23:40.003Z,70.62
2019-01-15T18:26:28.623Z,71.02
2019-01-15T18:29:22.191Z,71.87
2019-01-15T18:32:06.858Z,71.50
2019-01-15T18:34:58.401Z,72.27
2019-01-15T18:37:36.895Z,72.27
2019-01-15T18:40:42.986Z,72.12
2019-01-15T18:43:32.423Z,71.80
2019-01-15T18:46:16.235Z,70.94
2019-01-15T18:49:12.716Z,71.10
2019-01-15T18:52:03.510Z,71.10
2019-01-15T18:54:57.484Z,71.76
2019-01-15T18:57:53.822Z,71.63
2019-01-15T19:00:53.138Z,72.44
2019-01-15T19:03:52.630Z,71.62
2019-01-15T19:06:41.089Z,71.62
2019-01-15T19:09:32.116Z,72.06
2019-01-15T19:12:25.346Z,72.11
2019-01-15T19:15:22.194Z,72.38
2019-01-15T19:18:11.043Z,72.84
2019-01-15T19:21:02.166Z,72.84
2019-01-15T19:23:50.911Z,72.11
2019-01-15T19:26:40.280Z,72.57
2019-01-15T19:29:39.489Z,73.59
2019-01-15T19:32:30.332Z,73.59
2019-01-15T19:35:23.483Z,73.99
2019-01-15T19:38:14.028Z,73.99
2019-01-15T19:41:16.535Z,73.60
2019-01-15T19:44:13.370Z,72.82
2019-01-15T19:47:10.466Z,72.73
2019-01-15T19:49:54.886Z,72.73
2019-01-15T19:52:43.234Z,74.05
2019-01-15T19:55:32.288Z,74.05
2019-01-15T19:58:32.300Z,74.65
2019-01-15T20:01:22.764Z,73.02
2019-01-15T20:04:19.017Z,72.85
2019-01-15T20:07:18.631Z,72.85
2019-01-15T20:10:09.030Z,73.43
2019-01-15T20:13:11.708Z,72.89
2019-01-15T20:16:01.287Z,73.65
2019-01-15T20:18:54.459Z,73.43
2019-01-15T20:21:43.805Z,73.08
2019-01-15T20:24:34.776Z,74.48
2019-01-15T20:27:28.494Z,73.24
2019-01-15T20:30:24.937Z,73.24
2019-01-15T20:33:17.980Z,73.34
2019-01-15T20:36:06.843Z,73.11
2019-01-15T20:38:52.719Z,73.42
2019-01-15T20:41:54.591Z,73.47
2019-01-15T20:44:51.019Z,73.47
2019-01-15T20:47:44.493Z,73.10
2019-01-15T20:50:33.544Z,72.66
2019-01-15T20:53:15.168Z,72.37
2019-01-15T20:55:59.896Z,73.27
2019-01-15T20:58:49.068Z,73.27
2019-01-15T21:01:33.251Z,74.93
2019-01-15T21:04:29.640Z,73.55
2019-01-15T21:07:18.511Z,73.55
2019-01-15T21:10:01.116Z,73.76
2019-01-15T21:12:50.492Z,73.66
2019-01-15T21:15:40.886Z,74.57
2019-01-15T21:18:34.345Z,73.21
2019-01-15T21:21:23.120Z,73.21
2019-01-15T21:24:28.537Z,72.41
2019-01-15T21:27:22.758Z,72.41
2019-01-15T21:30:13.842Z,72.77
2019-01-15T21:33:07.233Z,72.77
2019-01-15T21:35:56.069Z,72.91
2019-01-15T21:38:55.269Z,72.91
2019-01-15T21:41:36.532Z,73.59
2019-01-15T21:44:25.328Z,73.59
2019-01-15T21:47:25.527Z,73.34
2019-01-15T21:50:24.414Z,72.73
2019-01-15T21:53:33.029Z,73.73
2019-01-15T21:56:36.127Z,74.26
2019-01-15T21:59:32.250Z,74.26
2019-01-15T22:02:19.818Z,75.30
2019-01-15T22:05:16.323Z,74.71
2019-01-15T22:08:09.906Z,73.49
2019-01-15T22:11:06.034Z,73.94
2019-01-15T22:14:02.555Z,73.94
2019-01-15T22:17:02.068Z,74.13
2019-01-15T22:19:58.061Z,73.09
2019-01-15T22:22:48.888Z,73.75
2019-01-15T22:25:38.152Z,73.75
2019-01-15T22:28:27.657Z,74.05
2019-01-15T22:31:17.204Z,73.65
2019-01-15T22:34:00.459Z,73.89
2019-01-15T22:37:06.096Z,73.69
2019-01-15T22:39:59.241Z,73.69
2019-01-15T22:42:52.705Z,74.39
2019-01-15T22:45:44.432Z,74.74
2019-01-15T22:48:37.814Z,73.97
2019-01-15T22:51:43.848Z,73.97
2019-01-15T22:54:44.199Z,74.28
2019-01-15T22:57:27.880Z,73.93
2019-01-15T23:00:21.245Z,74.40
2019-01-15T23:03:11.058Z,73.95
2019-01-15T23:06:01.763Z,73.95
2019-01-15T23:08:52.185Z,74.34
2019-01-15T23:11:37.596Z,74.35
2019-01-15T23:14:26.191Z,73.83
2019-01-15T23:17:19.754Z,73.66
2019-01-15T23:20:10.039Z,74.31
2019-01-15T23:22:56.447Z,74.31
2019-01-15T23:25:44.985Z,74.11
2019-01-15T23:28:30.466Z,74.23
2019-01-15T23:31:15.449Z,74.06
2019-01-15T23:34:14.640Z,74.06
2019-01-15T23:37:05.955Z,74.85
2019-01-15T23:40:11.607Z,74.85
2019-01-15T23:42:53.617Z,73.80
2019-01-15T23:45:55.465Z,74.38
2019-01-15T23:48:40.890Z,74.54
2019-01-15T23:51:34.205Z,74.54
2019-01-15T23:54:36.368Z,74.77
2019-01-15T23:57:36.793Z,74.61
